»·PEaware :: N800DW MPMG-KEYW

N800DW :: MPMG-KEYW

FLIGHT INFORMATION

Flight Status: Arrived
Operator: Privately registered:
United States
More flights under this callsign
Pilot: Scott L. (17677)
Aircraft: BEECH AIRCRAFT BARON
(BE58)
More flights by this aircraft type
Origin: MPMG Marcos A Gelabert Intl
Panama
Destination: KEYW Key West Intl
United States
More flights between these airports :: More routes between these airports
Route: XOPLI UG448 IKBIX MTH
File this flight plan on PilotEdge
Remarks:
Altitude:
(Current/Filed)
6,000ft
Speed:
(Current/Filed)
150kts
Departed: 06-Apr-20 05:35 AM
Arrived: 06-Apr-20 11:54 AM
Distance/Time
Traveled:
943nm/6:19
Distance/Time
To Go:
Arrived

Flight Plot

Page will automatically refresh every two minutes.


Map Options




Map Legend


Flown Route
Filed Route
Departure Airport
Arrival Airport
Navaid (VOR, NDB)
Fix

Horizontal Profiles

Position Reports

Time Latitude Longitude Heading Altitude Ground
Speed
06-Apr-20 05:33 8.983856 -79.601139 304 2579ft 102kts
06-Apr-20 05:34 9.008220 -79.604410 4 3890ft 91kts
06-Apr-20 05:35 9.033862 -79.605078 0 5076ft 91kts
06-Apr-20 05:36 9.059194 -79.607326 359 6166ft 90kts
06-Apr-20 05:37 9.083992 -79.610097 359 7155ft 89kts
06-Apr-20 05:38 9.108586 -79.613053 359 8070ft 88kts
06-Apr-20 05:39 9.132888 -79.616048 0 8910ft 87kts
06-Apr-20 05:40 9.157156 -79.619067 0 9676ft 87kts
06-Apr-20 05:41 9.181285 -79.622073 1 10372ft 87kts
06-Apr-20 05:42 9.205668 -79.625101 2 11009ft 88kts
06-Apr-20 05:43 9.230120 -79.628148 2 11593ft 88kts
06-Apr-20 05:44 9.254790 -79.631223 3 12129ft 89kts
06-Apr-20 05:45 9.279650 -79.634319 3 12623ft 90kts
06-Apr-20 05:46 9.304827 -79.637459 3 13079ft 91kts
06-Apr-20 05:47 9.319649 -79.647681 140 12428ft 162kts
06-Apr-20 05:48 9.320456 -79.650065 242 9192ft 196kts
06-Apr-20 05:49 9.316924 -79.652346 229 6129ft 175kts
06-Apr-20 05:50 9.311893 -79.650882 151 3117ft 180kts
06-Apr-20 05:51 9.311420 -79.644135 30 313ft 69kts
06-Apr-20 05:52 8.972086 -79.557502 277 4ft 0kts
06-Apr-20 05:53 8.972086 -79.557502 277 4ft 0kts
06-Apr-20 05:54 8.972086 -79.557502 277 4ft 0kts
06-Apr-20 05:55 8.972086 -79.557502 277 4ft 0kts
06-Apr-20 05:56 8.972086 -79.557502 277 4ft 0kts
06-Apr-20 05:57 8.972086 -79.557502 277 4ft 0kts
06-Apr-20 05:58 8.972086 -79.557502 277 4ft 0kts
06-Apr-20 05:59 8.972086 -79.557502 277 4ft 0kts
06-Apr-20 06:01 8.972086 -79.557502 277 4ft 0kts
06-Apr-20 06:02 8.972086 -79.557502 277 4ft 0kts
06-Apr-20 06:03 8.972086 -79.557502 277 4ft 0kts
06-Apr-20 06:04 8.972086 -79.557502 277 4ft 0kts
06-Apr-20 06:05 8.972086 -79.557502 277 4ft 0kts
06-Apr-20 06:06 8.972086 -79.557502 277 4ft 0kts
06-Apr-20 06:07 8.972086 -79.557502 277 4ft 0kts
06-Apr-20 06:08 8.972086 -79.557502 277 4ft 0kts
06-Apr-20 06:09 8.972086 -79.557502 277 4ft 0kts
06-Apr-20 06:10 8.972086 -79.557502 277 4ft 0kts
06-Apr-20 06:11 8.972086 -79.557502 277 4ft 0kts
06-Apr-20 06:12 8.972086 -79.557502 277 4ft 0kts
06-Apr-20 06:13 8.972086 -79.557502 277 4ft 0kts
06-Apr-20 06:14 8.972086 -79.557502 277 4ft 0kts
06-Apr-20 06:15 8.972086 -79.557502 277 4ft 0kts
06-Apr-20 06:16 8.972086 -79.557502 277 4ft 0kts
06-Apr-20 06:17 8.972086 -79.557502 277 4ft 0kts
06-Apr-20 06:18 8.972086 -79.557502 277 4ft 0kts
06-Apr-20 06:19 8.972086 -79.557502 277 4ft 0kts
06-Apr-20 06:19 8.972086 -79.557502 277 4ft 0kts
06-Apr-20 06:21 8.972197 -79.557657 326 4ft 7kts
06-Apr-20 06:21 8.973389 -79.555897 127 4ft 18kts
06-Apr-20 06:23 8.989316 -79.562123 274 836ft 86kts
06-Apr-20 06:24 8.988583 -79.584098 268 2287ft 77kts
06-Apr-20 06:24 8.994355 -79.598058 353 3324ft 74kts
06-Apr-20 06:26 9.018105 -79.598815 353 4639ft 74kts
06-Apr-20 06:26 9.035387 -79.600243 353 5528ft 74kts
06-Apr-20 06:27 9.063663 -79.603187 353 5843ft 141kts
06-Apr-20 06:28 9.107498 -79.608336 352 5842ft 167kts
06-Apr-20 06:29 9.154724 -79.614180 352 5787ft 173kts
06-Apr-20 06:30 9.203024 -79.620211 352 5767ft 172kts
06-Apr-20 06:31 9.250916 -79.626199 352 5769ft 172kts
06-Apr-20 06:32 9.298819 -79.632174 352 5768ft 172kts
06-Apr-20 06:33 9.346736 -79.638149 351 5768ft 173kts
06-Apr-20 06:34 9.397161 -79.644538 354 5812ft 187kts
06-Apr-20 06:35 9.449882 -79.651103 355 5780ft 192kts
06-Apr-20 06:36 9.503032 -79.657740 355 5765ft 192kts
06-Apr-20 06:37 9.556032 -79.664377 355 5767ft 191kts
06-Apr-20 06:38 9.608962 -79.671007 355 5767ft 191kts
06-Apr-20 06:39 9.661800 -79.677628 355 5767ft 191kts
06-Apr-20 06:40 9.714687 -79.684255 355 5767ft 191kts
06-Apr-20 06:41 9.767728 -79.690906 355 5767ft 191kts
06-Apr-20 06:42 9.820849 -79.697571 355 5768ft 192kts
06-Apr-20 06:43 9.873910 -79.704230 355 5768ft 192kts
06-Apr-20 06:44 9.926620 -79.710847 355 5768ft 191kts
06-Apr-20 06:45 9.979800 -79.717522 355 5768ft 191kts
06-Apr-20 06:46 10.032699 -79.724166 355 5768ft 191kts
06-Apr-20 06:47 10.085692 -79.730824 355 5768ft 191kts
06-Apr-20 06:48 10.138722 -79.737490 355 5766ft 191kts
06-Apr-20 06:49 10.191512 -79.744127 355 5766ft 191kts
06-Apr-20 06:50 10.244155 -79.750748 355 5767ft 191kts
06-Apr-20 06:51 10.297139 -79.757414 355 5767ft 191kts
06-Apr-20 06:52 10.349982 -79.764064 355 5767ft 191kts
06-Apr-20 06:53 10.402738 -79.770705 355 5767ft 191kts
06-Apr-20 06:54 10.455641 -79.777367 355 5767ft 191kts
06-Apr-20 06:55 10.508655 -79.784046 355 5767ft 191kts
06-Apr-20 06:56 10.561640 -79.790723 355 5767ft 191kts
06-Apr-20 06:57 10.614719 -79.797414 355 5768ft 191kts
06-Apr-20 06:58 10.667715 -79.804098 355 5768ft 191kts
06-Apr-20 06:59 10.720611 -79.810770 355 5768ft 191kts
06-Apr-20 07:00 10.773642 -79.817463 355 5768ft 191kts
06-Apr-20 07:01 10.826385 -79.824121 355 5768ft 191kts
06-Apr-20 07:02 10.879437 -79.830821 355 5768ft 191kts
06-Apr-20 07:03 10.932446 -79.837512 355 5768ft 191kts
06-Apr-20 07:04 10.985228 -79.844186 354 5770ft 191kts
06-Apr-20 07:05 11.038115 -79.850869 354 5795ft 191kts
06-Apr-20 07:06 11.090944 -79.857555 354 5795ft 191kts
06-Apr-20 07:07 11.143135 -79.864160 354 5793ft 191kts
06-Apr-20 07:08 11.195880 -79.870836 354 5794ft 191kts
06-Apr-20 07:09 11.248532 -79.877517 355 5805ft 190kts
06-Apr-20 07:10 11.300595 -79.884111 355 5817ft 188kts
06-Apr-20 07:11 11.352266 -79.890650 355 5826ft 185kts
06-Apr-20 07:12 11.403351 -79.897120 356 5832ft 184kts
06-Apr-20 07:13 11.453968 -79.903536 355 5835ft 183kts
06-Apr-20 07:14 11.504572 -79.909954 355 5837ft 183kts
06-Apr-20 07:15 11.555204 -79.916378 355 5837ft 183kts
06-Apr-20 07:16 11.605683 -79.922786 355 5837ft 183kts
06-Apr-20 07:17 11.656130 -79.929191 355 5837ft 183kts
06-Apr-20 07:18 11.706407 -79.935578 355 5837ft 183kts
06-Apr-20 07:19 11.756993 -79.942005 355 5837ft 183kts
06-Apr-20 07:20 11.807460 -79.948420 355 5837ft 183kts
06-Apr-20 07:21 11.858223 -79.954876 355 5837ft 183kts
06-Apr-20 07:22 11.908755 -79.961305 356 5837ft 183kts
06-Apr-20 07:23 11.959408 -79.967751 355 5837ft 183kts
06-Apr-20 07:24 12.009984 -79.974189 355 5837ft 183kts
06-Apr-20 07:25 12.060137 -79.980577 355 5837ft 183kts
06-Apr-20 07:26 12.111002 -79.987057 355 5838ft 183kts
06-Apr-20 07:27 12.161582 -79.993503 355 5838ft 183kts
06-Apr-20 07:28 12.212276 -79.999959 355 5843ft 182kts
06-Apr-20 07:29 12.262558 -80.006372 355 5848ft 181kts
06-Apr-20 07:30 12.312558 -80.012752 355 5853ft 181kts
06-Apr-20 07:31 12.362720 -80.019157 354 5856ft 180kts
06-Apr-20 07:32 12.412572 -80.025523 354 5859ft 180kts
06-Apr-20 07:33 12.462512 -80.031903 354 5863ft 180kts
06-Apr-20 07:34 12.512460 -80.038290 354 5865ft 180kts
06-Apr-20 07:35 12.562276 -80.044661 354 5865ft 180kts
06-Apr-20 07:36 12.611960 -80.051015 354 5864ft 180kts
06-Apr-20 07:37 12.661734 -80.057384 354 5864ft 180kts
06-Apr-20 07:38 12.711578 -80.063764 354 5864ft 180kts
06-Apr-20 07:39 12.761203 -80.070118 354 5864ft 180kts
06-Apr-20 07:40 12.811237 -80.076528 354 5864ft 180kts
06-Apr-20 07:41 12.861009 -80.082906 354 5864ft 180kts
06-Apr-20 07:42 12.911037 -80.089320 354 5864ft 180kts
06-Apr-20 07:43 12.960912 -80.095717 354 5864ft 180kts
06-Apr-20 07:44 13.010924 -80.102136 354 5864ft 180kts
06-Apr-20 07:45 13.060851 -80.108544 354 5864ft 179kts
06-Apr-20 07:46 13.110714 -80.114947 354 5866ft 179kts
06-Apr-20 07:47 13.160577 -80.121350 354 5866ft 179kts
06-Apr-20 07:48 13.210510 -80.127767 354 5865ft 179kts
06-Apr-20 07:49 13.260249 -80.134161 354 5865ft 179kts
06-Apr-20 07:50 13.310025 -80.140563 354 5865ft 179kts
06-Apr-20 07:51 13.359727 -80.146959 354 5865ft 179kts
06-Apr-20 07:52 13.409292 -80.153339 354 5865ft 179kts
06-Apr-20 07:53 13.459107 -80.159755 354 5865ft 179kts
06-Apr-20 07:54 13.508641 -80.166136 354 5865ft 179kts
06-Apr-20 07:55 13.558472 -80.172559 354 5865ft 179kts
06-Apr-20 07:56 13.608611 -80.179024 354 5863ft 179kts
06-Apr-20 07:57 13.658527 -80.185463 354 5864ft 179kts
06-Apr-20 07:58 13.708684 -80.191937 354 5865ft 179kts
06-Apr-20 07:59 13.758573 -80.198378 354 5865ft 179kts
06-Apr-20 08:00 13.808733 -80.204857 354 5864ft 179kts
06-Apr-20 08:01 13.858459 -80.211282 354 5864ft 179kts
06-Apr-20 08:02 13.908167 -80.217709 354 5864ft 179kts
06-Apr-20 08:03 13.958059 -80.224161 354 5864ft 179kts
06-Apr-20 08:04 14.007916 -80.230673 356 5845ft 182kts
06-Apr-20 08:05 14.058320 -80.237152 356 5907ft 184kts
06-Apr-20 08:06 14.109958 -80.243823 356 5898ft 185kts
06-Apr-20 08:07 14.161648 -80.250519 356 5902ft 185kts
06-Apr-20 08:08 14.213140 -80.257194 356 5902ft 185kts
06-Apr-20 08:09 14.264799 -80.263893 356 5902ft 185kts
06-Apr-20 08:10 14.316143 -80.270555 356 5902ft 185kts
06-Apr-20 08:11 14.367517 -80.277223 356 5902ft 185kts
06-Apr-20 08:12 14.418793 -80.283882 356 5902ft 185kts
06-Apr-20 08:13 14.470071 -80.290544 356 5902ft 185kts
06-Apr-20 08:14 14.521260 -80.297198 356 5902ft 185kts
06-Apr-20 08:15 14.572484 -80.303860 356 5903ft 185kts
06-Apr-20 08:16 14.623851 -80.310543 356 5902ft 185kts
06-Apr-20 08:17 14.675238 -80.317231 356 5902ft 185kts
06-Apr-20 08:18 14.726917 -80.323962 356 5902ft 185kts
06-Apr-20 08:19 14.778398 -80.330669 356 5901ft 185kts
06-Apr-20 08:21 14.830035 -80.337400 356 5902ft 185kts
06-Apr-20 08:22 14.882312 -80.344218 356 5902ft 185kts
06-Apr-20 08:23 14.934943 -80.351079 356 5901ft 185kts
06-Apr-20 08:24 14.972783 -80.356019 356 5902ft 185kts
06-Apr-20 08:25 15.036210 -80.364302 356 5902ft 185kts
06-Apr-20 08:26 15.087659 -80.371030 356 5902ft 185kts
06-Apr-20 08:27 15.139411 -80.377796 356 5903ft 185kts
06-Apr-20 08:28 15.191025 -80.384545 356 5902ft 185kts
06-Apr-20 08:29 15.242520 -80.391283 356 5902ft 185kts
06-Apr-20 08:30 15.294049 -80.398030 356 5902ft 185kts
06-Apr-20 08:31 15.345372 -80.404753 356 5902ft 185kts
06-Apr-20 08:32 15.396935 -80.411510 356 5903ft 185kts
06-Apr-20 08:33 15.448388 -80.418257 356 5902ft 185kts
06-Apr-20 08:34 15.500079 -80.425038 356 5902ft 185kts
06-Apr-20 08:35 15.551578 -80.431797 356 5902ft 185kts
06-Apr-20 08:36 15.602796 -80.438524 356 5902ft 185kts
06-Apr-20 08:37 15.654138 -80.445269 356 5902ft 185kts
06-Apr-20 08:38 15.705501 -80.452021 356 5903ft 185kts
06-Apr-20 08:39 15.756982 -80.458791 356 5902ft 185kts
06-Apr-20 08:40 15.808502 -80.465571 356 5902ft 185kts
06-Apr-20 08:40 15.851476 -80.471229 356 5903ft 185kts
06-Apr-20 08:42 15.911543 -80.479141 356 5902ft 185kts
06-Apr-20 08:42 15.954300 -80.484776 356 5902ft 185kts
06-Apr-20 08:43 16.005800 -80.491567 356 5902ft 185kts
06-Apr-20 08:45 16.065688 -80.499468 356 5902ft 185kts
06-Apr-20 08:45 16.108785 -80.505157 356 5903ft 185kts
06-Apr-20 08:46 16.160289 -80.511954 356 5903ft 185kts
06-Apr-20 08:48 16.220438 -80.519902 356 5903ft 185kts
06-Apr-20 08:48 16.263287 -80.525566 356 5902ft 185kts
06-Apr-20 08:49 16.314618 -80.532356 356 5903ft 185kts
06-Apr-20 08:50 16.365981 -80.539148 356 5908ft 185kts
06-Apr-20 08:51 16.417441 -80.545962 355 5918ft 186kts
06-Apr-20 08:52 16.468939 -80.552784 355 5928ft 186kts
06-Apr-20 08:53 16.520536 -80.559625 355 5932ft 187kts
06-Apr-20 08:54 16.572313 -80.566493 355 5931ft 187kts
06-Apr-20 08:55 16.624185 -80.573376 355 5931ft 187kts
06-Apr-20 08:56 16.676005 -80.580256 355 5931ft 187kts
06-Apr-20 08:57 16.727883 -80.587147 355 5931ft 187kts
06-Apr-20 08:58 16.778895 -80.593930 355 5924ft 184kts
06-Apr-20 08:59 16.829770 -80.600695 355 5930ft 183kts
06-Apr-20 09:00 16.880683 -80.607469 355 5931ft 183kts
06-Apr-20 09:01 16.931561 -80.614242 355 5931ft 183kts
06-Apr-20 09:02 16.982429 -80.621017 355 5932ft 183kts
06-Apr-20 09:03 17.033253 -80.627791 355 5931ft 183kts
06-Apr-20 09:04 17.084071 -80.634567 355 5931ft 182kts
06-Apr-20 09:05 17.134680 -80.641321 356 5934ft 183kts
06-Apr-20 09:06 17.185440 -80.648090 356 5932ft 183kts
06-Apr-20 09:07 17.236091 -80.654855 355 5928ft 183kts
06-Apr-20 09:08 17.286574 -80.661601 355 5929ft 183kts
06-Apr-20 09:09 17.337156 -80.668364 355 5929ft 183kts
06-Apr-20 09:10 17.387733 -80.675131 355 5929ft 183kts
06-Apr-20 09:11 17.438318 -80.681902 355 5929ft 183kts
06-Apr-20 09:12 17.488803 -80.688663 355 5929ft 183kts
06-Apr-20 09:13 17.539474 -80.695453 355 5929ft 183kts
06-Apr-20 09:14 17.589988 -80.702226 355 5929ft 183kts
06-Apr-20 09:15 17.640598 -80.709016 355 5929ft 183kts
06-Apr-20 09:16 17.690978 -80.715779 355 5929ft 183kts
06-Apr-20 09:17 17.741471 -80.722560 355 5929ft 183kts
06-Apr-20 09:18 17.791993 -80.729350 355 5929ft 183kts
06-Apr-20 09:19 17.842544 -80.736147 355 5929ft 183kts
06-Apr-20 09:20 17.893052 -80.742942 355 5929ft 183kts
06-Apr-20 09:21 17.943765 -80.749769 355 5929ft 183kts
06-Apr-20 09:22 17.994402 -80.756589 355 5929ft 183kts
06-Apr-20 09:23 18.045148 -80.763428 355 5929ft 183kts
06-Apr-20 09:24 18.095814 -80.770261 355 5929ft 183kts
06-Apr-20 09:25 18.146668 -80.777122 355 5929ft 183kts
06-Apr-20 09:26 18.197252 -80.783952 355 5929ft 183kts
06-Apr-20 09:27 18.247930 -80.790797 355 5929ft 183kts
06-Apr-20 09:28 18.298475 -80.797629 355 5929ft 183kts
06-Apr-20 09:29 18.349076 -80.804473 355 5929ft 183kts
06-Apr-20 09:30 18.399295 -80.811269 355 5929ft 183kts
06-Apr-20 09:31 18.450867 -80.818252 355 5929ft 183kts
06-Apr-20 09:32 18.501416 -80.825101 355 5929ft 183kts
06-Apr-20 09:33 18.552050 -80.831965 355 5929ft 183kts
06-Apr-20 09:34 18.602844 -80.838855 355 5929ft 183kts
06-Apr-20 09:35 18.653529 -80.845735 355 5929ft 183kts
06-Apr-20 09:36 18.704336 -80.852635 355 5929ft 183kts
06-Apr-20 09:37 18.755085 -80.859532 355 5929ft 183kts
06-Apr-20 09:38 18.805786 -80.866426 355 5929ft 183kts
06-Apr-20 09:39 18.856508 -80.873327 355 5930ft 183kts
06-Apr-20 09:40 18.907147 -80.880218 355 5931ft 183kts
06-Apr-20 09:41 18.957695 -80.887101 355 5929ft 182kts
06-Apr-20 09:42 19.007946 -80.893948 355 5929ft 180kts
06-Apr-20 09:43 19.057614 -80.900724 355 5927ft 179kts
06-Apr-20 09:44 19.107033 -80.907473 355 5929ft 179kts
06-Apr-20 09:45 19.156812 -80.914273 355 5930ft 179kts
06-Apr-20 09:46 19.206524 -80.921066 355 5930ft 179kts
06-Apr-20 09:47 19.256125 -80.927848 355 5930ft 179kts
06-Apr-20 09:48 19.305815 -80.934645 355 5930ft 179kts
06-Apr-20 09:49 19.355550 -80.941454 355 5930ft 179kts
06-Apr-20 09:50 19.405345 -80.948274 355 5930ft 179kts
06-Apr-20 09:51 19.455212 -80.955109 355 5930ft 179kts
06-Apr-20 09:52 19.505170 -80.961960 355 5930ft 179kts
06-Apr-20 09:53 19.554904 -80.968785 355 5930ft 179kts
06-Apr-20 09:54 19.604792 -80.975636 355 5930ft 179kts
06-Apr-20 09:55 19.654794 -80.982506 355 5930ft 179kts
06-Apr-20 09:56 19.704106 -80.989286 355 5930ft 179kts
06-Apr-20 09:57 19.754108 -80.996165 355 5930ft 179kts
06-Apr-20 09:58 19.803881 -81.003016 355 5930ft 179kts
06-Apr-20 09:59 19.853474 -81.009848 355 5929ft 180kts
06-Apr-20 10:00 19.903254 -81.016709 355 5929ft 180kts
06-Apr-20 10:01 19.953058 -81.023578 355 5929ft 180kts
06-Apr-20 10:02 20.002911 -81.030458 355 5929ft 180kts
06-Apr-20 10:03 20.052836 -81.037353 355 5929ft 180kts
06-Apr-20 10:04 20.102196 -81.044173 355 5929ft 180kts
06-Apr-20 10:05 20.153375 -81.051245 355 5931ft 183kts
06-Apr-20 10:06 20.204439 -81.058310 355 5930ft 184kts
06-Apr-20 10:07 20.255537 -81.065385 355 5930ft 184kts
06-Apr-20 10:08 20.306514 -81.072448 355 5930ft 184kts
06-Apr-20 10:09 20.357626 -81.079534 355 5931ft 184kts
06-Apr-20 10:10 20.408930 -81.086652 355 5932ft 184kts
06-Apr-20 10:11 20.460329 -81.093787 355 5933ft 184kts
06-Apr-20 10:12 20.511032 -81.100831 355 5932ft 184kts
06-Apr-20 10:13 20.562226 -81.107947 355 5932ft 184kts
06-Apr-20 10:14 20.613388 -81.115064 355 5931ft 184kts
06-Apr-20 10:15 20.664771 -81.122217 355 5931ft 184kts
06-Apr-20 10:16 20.716666 -81.129293 351 5973ft 182kts
06-Apr-20 10:17 20.766867 -81.136393 349 5937ft 180kts
06-Apr-20 10:18 20.816709 -81.143392 349 5949ft 177kts
06-Apr-20 10:19 20.865835 -81.150253 349 5953ft 177kts
06-Apr-20 10:20 20.915090 -81.157132 349 5954ft 177kts
06-Apr-20 10:21 20.964260 -81.164004 349 5956ft 177kts
06-Apr-20 10:22 21.013432 -81.170878 349 5955ft 177kts
06-Apr-20 10:23 21.062595 -81.177757 349 5956ft 178kts
06-Apr-20 10:24 21.111311 -81.184581 349 5957ft 179kts
06-Apr-20 10:25 21.161491 -81.191615 349 5957ft 180kts
06-Apr-20 10:26 21.211635 -81.198647 349 5956ft 180kts
06-Apr-20 10:27 21.261725 -81.205676 349 5956ft 180kts
06-Apr-20 10:28 21.311827 -81.212712 349 5956ft 180kts
06-Apr-20 10:29 21.362016 -81.219764 349 5956ft 180kts
06-Apr-20 10:30 21.411880 -81.226776 349 5956ft 180kts
06-Apr-20 10:31 21.461993 -81.233827 349 5956ft 180kts
06-Apr-20 10:32 21.512283 -81.240909 349 5956ft 180kts
06-Apr-20 10:33 21.562618 -81.248002 349 5956ft 180kts
06-Apr-20 10:34 21.612608 -81.255051 349 5956ft 180kts
06-Apr-20 10:35 21.662576 -81.262102 349 5956ft 180kts
06-Apr-20 10:36 21.712570 -81.269161 349 5956ft 180kts
06-Apr-20 10:37 21.762493 -81.276215 349 5956ft 180kts
06-Apr-20 10:39 21.812369 -81.283268 349 5956ft 180kts
06-Apr-20 10:40 21.862586 -81.290374 349 5956ft 180kts
06-Apr-20 10:41 21.912679 -81.297467 349 5956ft 180kts
06-Apr-20 10:42 21.962684 -81.304553 349 5956ft 180kts
06-Apr-20 10:43 22.012550 -81.311624 349 5956ft 180kts
06-Apr-20 10:44 22.062800 -81.318755 349 5956ft 180kts
06-Apr-20 10:45 22.112737 -81.325855 349 5959ft 179kts
06-Apr-20 10:46 22.161979 -81.332866 350 5956ft 176kts
06-Apr-20 10:47 22.210094 -81.339722 351 5956ft 173kts
06-Apr-20 10:48 22.257696 -81.346491 352 5956ft 172kts
06-Apr-20 10:49 22.304965 -81.353199 352 5957ft 172kts
06-Apr-20 10:50 22.352395 -81.359954 352 5957ft 172kts
06-Apr-20 10:51 22.399728 -81.366700 352 5957ft 171kts
06-Apr-20 10:52 22.447165 -81.373469 352 5957ft 171kts
06-Apr-20 10:53 22.494692 -81.380255 352 5957ft 171kts
06-Apr-20 10:54 22.542218 -81.387046 352 5957ft 171kts
06-Apr-20 10:55 22.589862 -81.393859 352 5956ft 171kts
06-Apr-20 10:56 22.637001 -81.400604 352 5956ft 171kts
06-Apr-20 10:57 22.684753 -81.397569 5 5965ft 171kts
06-Apr-20 10:58 22.732231 -81.391823 5 5958ft 172kts
06-Apr-20 10:58 22.772117 -81.386898 5 5955ft 172kts
06-Apr-20 11:00 22.827627 -81.380020 5 5956ft 172kts
06-Apr-20 11:00 22.867330 -81.375096 5 5955ft 172kts
06-Apr-20 11:01 22.915146 -81.369151 5 5956ft 171kts
06-Apr-20 11:03 22.970524 -81.362267 4 5955ft 170kts
06-Apr-20 11:03 23.009772 -81.357386 4 5954ft 169kts
06-Apr-20 11:04 23.056531 -81.351574 4 5952ft 168kts
06-Apr-20 11:06 23.111595 -81.344716 3 5958ft 170kts
06-Apr-20 11:06 23.151208 -81.339792 3 5958ft 171kts
06-Apr-20 11:07 23.198633 -81.333881 3 5957ft 171kts
06-Apr-20 11:08 23.246166 -81.327952 3 5957ft 171kts
06-Apr-20 11:09 23.293636 -81.322026 3 5957ft 171kts
06-Apr-20 11:10 23.341235 -81.316080 3 5957ft 171kts
06-Apr-20 11:11 23.388653 -81.310152 3 5957ft 171kts
06-Apr-20 11:12 23.436151 -81.304209 3 5956ft 171kts
06-Apr-20 11:13 23.483584 -81.298271 3 5956ft 171kts
06-Apr-20 11:14 23.530801 -81.292356 3 5956ft 171kts
06-Apr-20 11:15 23.577969 -81.286442 3 5956ft 171kts
06-Apr-20 11:16 23.625293 -81.280504 3 5956ft 171kts
06-Apr-20 11:17 23.672801 -81.274539 3 5956ft 171kts
06-Apr-20 11:18 23.720372 -81.268561 3 5956ft 171kts
06-Apr-20 11:19 23.767765 -81.262602 3 5955ft 170kts
06-Apr-20 11:20 23.815094 -81.256647 3 5955ft 170kts
06-Apr-20 11:21 23.862561 -81.250669 3 5954ft 170kts
06-Apr-20 11:22 23.909957 -81.244696 3 5953ft 170kts
06-Apr-20 11:23 23.957396 -81.238714 3 5951ft 170kts
06-Apr-20 11:24 24.004831 -81.232251 6 5949ft 171kts
06-Apr-20 11:25 24.051959 -81.223298 6 5948ft 171kts
06-Apr-20 11:26 24.099171 -81.214201 6 5948ft 171kts
06-Apr-20 11:27 24.146448 -81.205070 6 5952ft 172kts
06-Apr-20 11:28 24.193715 -81.195933 6 5951ft 172kts
06-Apr-20 11:29 24.241054 -81.186775 6 5950ft 172kts
06-Apr-20 11:30 24.288110 -81.177665 6 5950ft 172kts
06-Apr-20 11:31 24.335561 -81.168472 6 5949ft 172kts
06-Apr-20 11:32 24.383035 -81.159268 6 5949ft 172kts
06-Apr-20 11:33 24.430344 -81.150088 6 5948ft 172kts
06-Apr-20 11:34 24.477934 -81.140847 6 5948ft 172kts
06-Apr-20 11:35 24.525435 -81.131617 6 5947ft 172kts
06-Apr-20 11:36 24.572866 -81.122392 6 5946ft 172kts
06-Apr-20 11:37 24.620219 -81.113175 6 5946ft 172kts
06-Apr-20 11:38 24.667705 -81.103925 6 5946ft 171kts
06-Apr-20 11:39 24.707641 -81.113717 276 5944ft 170kts
06-Apr-20 11:40 24.695605 -81.166325 259 5969ft 177kts
06-Apr-20 11:41 24.673561 -81.214545 224 6031ft 182kts
06-Apr-20 11:42 24.641373 -81.261693 254 5189ft 197kts
06-Apr-20 11:43 24.624139 -81.320957 256 4118ft 204kts
06-Apr-20 11:44 24.606882 -81.381214 256 2999ft 206kts
06-Apr-20 11:45 24.589258 -81.442670 255 1767ft 209kts
06-Apr-20 11:46 24.573581 -81.496892 256 1328ft 144kts
06-Apr-20 11:47 24.562530 -81.535560 257 1502ft 144kts
06-Apr-20 11:48 24.557723 -81.580796 273 1882ft 149kts
06-Apr-20 11:49 24.557313 -81.628033 273 2067ft 156kts
06-Apr-20 11:50 24.556888 -81.673744 273 1427ft 133kts
06-Apr-20 11:51 24.556399 -81.709139 272 626ft 95kts
06-Apr-20 11:52 24.556437 -81.742348 272 376ft 104kts
06-Apr-20 11:53 24.555909 -81.762019 210 7ft 19kts
06-Apr-20 11:54 24.555383 -81.762095 178 7ft 0kts
06-Apr-20 11:55 24.555273 -81.757984 119 7ft 5kts
06-Apr-20 11:56 24.554851 -81.757432 355 7ft 0kts
06-Apr-20 11:57 24.554851 -81.757432 355 7ft 0kts
06-Apr-20 11:58 24.554851 -81.757432 355 7ft 0kts
06-Apr-20 11:59 24.554851 -81.757432 355 7ft 0kts
06-Apr-20 12:00 24.554851 -81.757432 355 7ft 0kts
06-Apr-20 12:01 24.554851 -81.757432 355 7ft 0kts
06-Apr-20 12:02 24.554851 -81.757432 355 7ft 0kts
06-Apr-20 12:03 24.554851 -81.757432 355 7ft 0kts
06-Apr-20 12:04 24.554851 -81.757432 355 7ft 0kts
06-Apr-20 12:05 24.554851 -81.757432 355 7ft 0kts
06-Apr-20 12:06 24.554851 -81.757432 355 7ft 0kts
06-Apr-20 12:07 24.554851 -81.757432 355 7ft 0kts

Navigation Log

Ident Type
Flight plan parsing failed, navigation log unavailable